createdAt,value
2023-02-06T00:02:24.698Z,102429.91
2023-02-06T00:07:18.062Z,102370.69
2023-02-06T00:12:14.002Z,102375.06
2023-02-06T00:17:07.347Z,102438.53
2023-02-06T00:22:00.561Z,102430.03
2023-02-06T00:26:56.534Z,102394.00
2023-02-06T00:31:52.124Z,102433.44
2023-02-06T00:36:45.312Z,102403.34
2023-02-06T00:41:38.693Z,102444.50
2023-02-06T00:46:32.833Z,102365.78
2023-02-06T00:51:27.924Z,102411.31
2023-02-06T00:56:21.108Z,102382.22
2023-02-06T01:01:14.274Z,102347.19
2023-02-06T01:06:07.557Z,102419.31
2023-02-06T01:11:02.189Z,102432.06
2023-02-06T01:15:55.431Z,102386.63
2023-02-06T01:20:48.729Z,102434.75
2023-02-06T01:25:41.845Z,102419.53
2023-02-06T01:30:36.701Z,102394.59
2023-02-06T01:35:30.075Z,102353.50
2023-02-06T01:40:23.354Z,102390.38
2023-02-06T01:45:45.769Z,102346.72
2023-02-06T01:50:42.959Z,102409.28
2023-02-06T01:55:39.133Z,102371.53
2023-02-06T02:00:32.435Z,102358.63
2023-02-06T02:05:27.101Z,102426.44
2023-02-06T02:10:20.600Z,102427.31
2023-02-06T02:15:14.489Z,102391.31
2023-02-06T02:20:45.552Z,102204.53
2023-02-06T02:26:26.596Z,102397.47
2023-02-06T02:32:06.514Z,102431.78
2023-02-06T02:37:11.678Z,102422.22
2023-02-06T02:42:12.795Z,102384.63
2023-02-06T02:47:09.412Z,102408.59
2023-02-06T02:52:04.869Z,102380.38
2023-02-06T02:57:05.245Z,102441.31
2023-02-06T03:02:01.969Z,102421.69
2023-02-06T03:07:18.942Z,102373.78
2023-02-06T03:12:19.025Z,102393.53
2023-02-06T03:17:19.686Z,102419.28
2023-02-06T03:22:16.116Z,102390.13
2023-02-06T03:27:12.440Z,102404.81
2023-02-06T03:32:08.848Z,102385.19
2023-02-06T03:37:02.678Z,102381.03
2023-02-06T03:42:01.191Z,102435.97
2023-02-06T03:46:57.227Z,102447.06
2023-02-06T03:51:57.059Z,102453.94
2023-02-06T03:57:07.428Z,102438.47
2023-02-06T04:02:04.164Z,102434.28
2023-02-06T04:06:58.235Z,102460.81
2023-02-06T04:11:51.586Z,102441.94
2023-02-06T04:16:46.285Z,102448.88
2023-02-06T04:21:39.850Z,102422.25
2023-02-06T04:26:33.121Z,102437.69
2023-02-06T04:31:26.265Z,102438.56
2023-02-06T04:36:20.945Z,102464.28
2023-02-06T04:41:14.285Z,102454.84
2023-02-06T04:46:07.486Z,102424.78
2023-02-06T04:51:00.792Z,102458.16
2023-02-06T04:55:58.542Z,102479.63
2023-02-06T05:00:51.758Z,102360.44
2023-02-06T05:05:44.885Z,102490.75
2023-02-06T05:10:38.106Z,102474.47
2023-02-06T05:15:32.661Z,102353.50
2023-02-06T05:20:25.853Z,102479.59
2023-02-06T05:25:19.319Z,102505.28
2023-02-06T05:30:15.345Z,102485.59
2023-02-06T05:35:10.623Z,102426.38
2023-02-06T05:40:03.936Z,102483.94
2023-02-06T05:44:57.118Z,102499.34
2023-02-06T05:49:50.584Z,102483.91
2023-02-06T05:54:45.910Z,102483.06
2023-02-06T05:59:39.359Z,102419.59
2023-02-06T06:04:32.668Z,102501.94
2023-02-06T06:09:26.096Z,102503.72
2023-02-06T06:14:20.819Z,102530.34
2023-02-06T06:19:14.139Z,102495.19
2023-02-06T06:24:08.131Z,102539.66
2023-02-06T06:29:01.551Z,102506.19
2023-02-06T06:33:56.230Z,102495.88
2023-02-06T06:38:49.710Z,102553.31
2023-02-06T06:43:45.505Z,102564.44
2023-02-06T06:48:38.981Z,102517.22
2023-02-06T06:53:33.992Z,102570.44
2023-02-06T06:58:27.590Z,102566.19
2023-02-06T07:03:20.953Z,102493.25
2023-02-06T07:08:14.591Z,102547.38
2023-02-06T07:13:09.526Z,102551.66
2023-02-06T07:18:02.926Z,102587.69
2023-02-06T07:22:56.278Z,102580.94
2023-02-06T07:27:49.635Z,102565.44
2023-02-06T07:32:44.194Z,102532.88
2023-02-06T07:37:37.429Z,102469.41
2023-02-06T07:42:30.852Z,102576.69
2023-02-06T07:47:30.927Z,102535.56
2023-02-06T07:52:25.588Z,102589.66
2023-02-06T07:57:19.139Z,102600.91
2023-02-06T08:02:13.272Z,102474.81
2023-02-06T08:07:11.056Z,102540.13
2023-02-06T08:12:05.870Z,102481.84
2023-02-06T08:17:00.308Z,102560.81
2023-02-06T08:21:53.589Z,102608.81
2023-02-06T08:26:46.832Z,102454.56
2023-02-06T08:31:43.270Z,102595.31
2023-02-06T08:36:36.717Z,102566.16
2023-02-06T08:41:32.308Z,102493.41
2023-02-06T08:46:28.903Z,102631.53
2023-02-06T08:51:28.030Z,102598.22
2023-02-06T08:56:21.469Z,102603.44
2023-02-06T09:01:16.826Z,102647.25
2023-02-06T09:06:11.096Z,102657.59
2023-02-06T09:11:17.687Z,102455.44
2023-02-06T09:16:13.202Z,102619.09
2023-02-06T09:21:10.247Z,102553.16
2023-02-06T09:26:03.711Z,102587.47
2023-02-06T09:30:58.887Z,102566.13
2023-02-06T09:36:04.333Z,102641.53
2023-02-06T09:40:58.438Z,102518.19
2023-02-06T09:45:58.861Z,102444.53
2023-02-06T09:51:00.707Z,102634.66
2023-02-06T09:55:59.599Z,102586.53
2023-02-06T10:00:59.176Z,102673.94
2023-02-06T10:06:03.805Z,102450.22
2023-02-06T10:10:59.745Z,102659.28
2023-02-06T10:15:57.258Z,102564.97
2023-02-06T10:20:55.908Z,102651.59
2023-02-06T10:25:54.729Z,102645.63
2023-02-06T10:31:05.980Z,102616.53
2023-02-06T10:36:09.066Z,102613.13
2023-02-06T10:41:07.677Z,102560.81
2023-02-06T10:46:13.085Z,102608.00
2023-02-06T10:51:18.976Z,102542.88
2023-02-06T10:56:15.301Z,102626.06
2023-02-06T11:01:25.140Z,102627.78
2023-02-06T11:06:23.846Z,102601.22
2023-02-06T11:11:24.208Z,102631.22
2023-02-06T11:16:23.917Z,102617.50
2023-02-06T11:21:37.917Z,102581.50
2023-02-06T11:26:33.820Z,102580.66
2023-02-06T11:31:42.865Z,102555.84
2023-02-06T11:36:39.406Z,102589.25
2023-02-06T11:41:34.754Z,102489.00
2023-02-06T11:46:29.649Z,102602.94
2023-02-06T11:51:24.076Z,102572.97
2023-02-06T11:56:20.809Z,102629.50
2023-02-06T12:01:21.373Z,102626.94
2023-02-06T12:06:18.807Z,102599.53
2023-02-06T12:11:17.819Z,102466.78
2023-02-06T12:16:17.590Z,102442.84
2023-02-06T12:21:17.476Z,102558.47
2023-02-06T12:26:15.324Z,102625.25
2023-02-06T12:31:15.306Z,102600.44
2023-02-06T12:36:17.137Z,102603.84
2023-02-06T12:41:44.243Z,102587.59
2023-02-06T12:46:38.006Z,102549.88
2023-02-06T12:51:37.453Z,102536.16
2023-02-06T12:56:36.923Z,102644.09
2023-02-06T13:01:43.846Z,102645.81
2023-02-06T13:06:47.525Z,102615.78
2023-02-06T13:11:42.768Z,102670.63
2023-02-06T13:16:46.379Z,102562.66
2023-02-06T13:21:41.230Z,102607.22
2023-02-06T13:27:11.987Z,102677.50
2023-02-06T13:32:41.150Z,102682.63
2023-02-06T13:37:37.915Z,102693.72
2023-02-06T13:42:40.484Z,102659.44
2023-02-06T13:48:05.379Z,102695.44
2023-02-06T13:53:18.248Z,102662.88
2023-02-06T13:58:36.548Z,102656.81
2023-02-06T14:03:32.793Z,102679.06
2023-02-06T14:08:39.314Z,102655.91
2023-02-06T14:13:44.414Z,102681.63
2023-02-06T14:18:47.969Z,102529.03
2023-02-06T14:23:59.185Z,102725.38
2023-02-06T14:29:02.865Z,102707.38
2023-02-06T14:34:08.182Z,102722.81
2023-02-06T14:39:31.182Z,102552.19
2023-02-06T14:44:31.782Z,102625.88
2023-02-06T14:49:35.253Z,102706.41
2023-02-06T14:54:32.912Z,102665.28
2023-02-06T14:59:26.468Z,102740.75
2023-02-06T15:04:23.127Z,102757.00
2023-02-06T15:09:32.529Z,102751.91
2023-02-06T15:14:27.719Z,102727.84
2023-02-06T15:19:24.255Z,102663.53
2023-02-06T15:24:49.878Z,102735.53
2023-02-06T15:29:51.092Z,102774.94
2023-02-06T15:34:47.771Z,102706.19
2023-02-06T15:39:41.189Z,102809.88
2023-02-06T15:44:38.579Z,102813.22
2023-02-06T15:49:37.822Z,102813.97
2023-02-06T15:54:31.970Z,102720.19
2023-02-06T15:59:27.105Z,102842.06
2023-02-06T16:04:24.519Z,102826.41
2023-02-06T16:09:22.142Z,102634.84
2023-02-06T16:14:21.600Z,102756.59
2023-02-06T16:19:38.626Z,102849.34
2023-02-06T16:24:32.020Z,102829.53
2023-02-06T16:29:28.158Z,102791.66
2023-02-06T16:34:23.618Z,102893.78
2023-02-06T16:39:18.389Z,102888.59
2023-02-06T16:44:16.353Z,102854.09
2023-02-06T16:49:17.291Z,102850.69
2023-02-06T16:54:19.984Z,102774.13
2023-02-06T16:59:14.791Z,102790.25
2023-02-06T17:04:08.378Z,102803.97
2023-02-06T17:09:07.752Z,102913.22
2023-02-06T17:14:01.440Z,102918.34
2023-02-06T17:18:58.419Z,102821.97
2023-02-06T17:23:52.748Z,102795.19
2023-02-06T17:28:50.026Z,102811.63
2023-02-06T17:33:43.496Z,102800.38
2023-02-06T17:38:38.433Z,102923.31
2023-02-06T17:43:34.606Z,102875.13
2023-02-06T17:48:29.935Z,102697.09
2023-02-06T17:53:23.793Z,102926.66
2023-02-06T17:58:22.807Z,102917.06
2023-02-06T18:03:18.439Z,102811.25
2023-02-06T18:08:12.525Z,102834.44
2023-02-06T18:13:06.094Z,102886.91
2023-02-06T18:18:01.878Z,102886.00
2023-02-06T18:22:55.806Z,102842.88
2023-02-06T18:27:49.318Z,102788.75
2023-02-06T18:32:42.980Z,102935.78
2023-02-06T18:37:40.208Z,102795.56
2023-02-06T18:42:51.028Z,102922.06
2023-02-06T18:47:46.938Z,102830.75
2023-02-06T18:52:41.922Z,102941.69
2023-02-06T18:57:36.387Z,102945.09
2023-02-06T19:02:30.000Z,102827.97
2023-02-06T19:07:23.479Z,102950.09
2023-02-06T19:12:18.394Z,102957.75
2023-02-06T19:17:11.771Z,102938.81
2023-02-06T19:22:14.608Z,102913.88
2023-02-06T19:27:10.224Z,102850.03
2023-02-06T19:32:06.787Z,102875.84
2023-02-06T19:37:00.231Z,102954.28
2023-02-06T19:41:53.683Z,102959.41
2023-02-06T19:46:46.919Z,102882.00
2023-02-06T19:51:44.876Z,102878.50
2023-02-06T19:56:40.103Z,102868.16
2023-02-06T20:01:43.308Z,102974.03
2023-02-06T20:06:36.747Z,102976.53
2023-02-06T20:11:33.103Z,102985.06
2023-02-06T20:16:28.392Z,102975.66
2023-02-06T20:21:26.783Z,102893.03
2023-02-06T20:26:21.508Z,102952.47
2023-02-06T20:31:17.051Z,102951.59
2023-02-06T20:36:16.278Z,102974.00
2023-02-06T20:41:11.620Z,102841.31
2023-02-06T20:46:07.321Z,102922.25
2023-02-06T20:51:03.581Z,102931.53
2023-02-06T20:55:57.408Z,102991.88
2023-02-06T21:00:50.840Z,102920.38
2023-02-06T21:05:44.384Z,102915.25
2023-02-06T21:10:39.404Z,102813.66
2023-02-06T21:15:33.497Z,102886.84
2023-02-06T21:20:26.868Z,102922.28
2023-02-06T21:25:21.662Z,102991.19
2023-02-06T21:30:16.648Z,102937.00
2023-02-06T21:35:12.251Z,102885.22
2023-02-06T21:40:10.367Z,102894.69
2023-02-06T21:45:04.164Z,103006.66
2023-02-06T21:49:59.635Z,102931.66
2023-02-06T21:54:52.937Z,103015.22
2023-02-06T21:59:46.319Z,103025.41
2023-02-06T22:04:40.658Z,103001.06
2023-02-06T22:09:35.406Z,102971.78
2023-02-06T22:14:29.049Z,102978.56
2023-02-06T22:19:22.470Z,102967.38
2023-02-06T22:24:16.245Z,102969.09
2023-02-06T22:29:17.162Z,103017.28
2023-02-06T22:34:15.160Z,103031.69
2023-02-06T22:39:12.613Z,103033.41
2023-02-06T22:44:06.404Z,102912.84
2023-02-06T22:49:05.527Z,103033.47
2023-02-06T22:53:59.539Z,102890.41
2023-02-06T22:58:53.151Z,102957.47
2023-02-06T23:03:46.375Z,103011.78
2023-02-06T23:08:42.164Z,103023.84
2023-02-06T23:13:35.898Z,102797.44
2023-02-06T23:18:29.804Z,103008.38
2023-02-06T23:23:23.414Z,103033.31
2023-02-06T23:28:18.108Z,103009.09
2023-02-06T23:33:11.709Z,103040.13
2023-02-06T23:38:05.648Z,102939.28
2023-02-06T23:42:59.351Z,102898.81
2023-02-06T23:47:55.102Z,102897.13
2023-02-06T23:52:48.747Z,103042.56
2023-02-06T23:57:42.848Z,102999.56
